Accueil
METAR-TAF:

METAR-TAF

Aéroports :

Florennes, Belgique

Base aérienne de Florennes

latitude: 50-14N, longitude: 004-39E, altitude: 279 m

Observation

Le bulletin a été fait il y a 22 minutes, à 10:25 UTC
Vent 9 kt de ouest
Température 19°C
Humidité 68%
Pression 1012 hPa
Visibilité 10 km ou plus
Nuages épars à une hauteur de 2800 ft

METAR: EBFS 261025Z 26009KT 9999 SCT028 19/13 Q1012 BLU BLU

Heure: 12:47 (10:47 UTC)

Prévision

Le bulletin a été fait il y a 2 heures et 6 minutes, à 08:41 UTC
Prévision valable du 26 à 10 UTC au 26 à 19 UTC
Vent 10 kt de ouest/sud-ouest
Visibilité 10 km ou plus
Nuages épars à une hauteur de 3000 ft
Evoluant progressivement
du 26 à 15 UTC au 26 à 16 UTC
Nuages épars à une hauteur de 4000 ft
Nuages fragmentés à une hauteur de 12000 ft
Nuages fragmentés à une hauteur de 22000 ft

TAF: EBFS 260841Z 2610/2619 24010KT 9999 SCT030 BECMG 2615/2616 SCT040 BKN120 BKN220

Observations et prévisions météorologiques de plus de 4000 aéroports (messages METAR et TAF).

Les stations disponibles sont représentées par des disques jaunes et rouges sur la carte.

Passer la souris dessus pour voir le nom de la station.

Cliquer dessus pour voir les observations et prévisions météorologiques.

Pour changer de carte: cliquez sur les boutons verts avec une croix noire pour zoomer, sur le bouton vert avec un tiret pour effectuer un zoom arrière, ou sur les flèches vertes pour les cartes adjacentes.


METAR-TAF: